sensor_id;sensor_type;location;lat;lon;timestamp;temperature;humidity
10728;DHT22;5415;59.322;18.246;2022-11-15T00:01:18;6.60;99.90
10728;DHT22;5415;59.322;18.246;2022-11-15T00:03:51;6.90;99.90
10728;DHT22;5415;59.322;18.246;2022-11-15T00:06:19;6.60;99.90
10728;DHT22;5415;59.322;18.246;2022-11-15T00:08:48;7.20;99.90
10728;DHT22;5415;59.322;18.246;2022-11-15T00:11:15;6.50;99.90
10728;DHT22;5415;59.322;18.246;2022-11-15T00:13:45;6.50;99.90
10728;DHT22;5415;59.322;18.246;2022-11-15T00:16:12;6.30;99.90
10728;DHT22;5415;59.322;18.246;2022-11-15T00:18:39;6.50;99.90
10728;DHT22;5415;59.322;18.246;2022-11-15T00:21:12;6.40;99.90
10728;DHT22;5415;59.322;18.246;2022-11-15T00:23:40;6.40;99.90
10728;DHT22;5415;59.322;18.246;2022-11-15T00:26:12;6.80;99.90
10728;DHT22;5415;59.322;18.246;2022-11-15T00:28:41;6.40;99.90
10728;DHT22;5415;59.322;18.246;2022-11-15T00:31:10;6.40;99.90
10728;DHT22;5415;59.322;18.246;2022-11-15T00:33:38;6.70;99.90
10728;DHT22;5415;59.322;18.246;2022-11-15T00:36:09;6.30;99.90
10728;DHT22;5415;59.322;18.246;2022-11-15T00:38:37;7.40;99.90
10728;DHT22;5415;59.322;18.246;2022-11-15T00:41:06;7.30;99.90
10728;DHT22;5415;59.322;18.246;2022-11-15T00:43:34;6.20;99.90
10728;DHT22;5415;59.322;18.246;2022-11-15T00:46:01;6.50;99.90
10728;DHT22;5415;59.322;18.246;2022-11-15T00:48:29;6.20;99.90
10728;DHT22;5415;59.322;18.246;2022-11-15T00:50:57;6.20;99.90
10728;DHT22;5415;59.322;18.246;2022-11-15T00:53:29;6.20;99.90
10728;DHT22;5415;59.322;18.246;2022-11-15T00:55:58;6.10;99.90
10728;DHT22;5415;59.322;18.246;2022-11-15T00:58:25;6.10;99.90
10728;DHT22;5415;59.322;18.246;2022-11-15T01:00:53;6.10;99.90
10728;DHT22;5415;59.322;18.246;2022-11-15T01:03:20;6.00;99.90
10728;DHT22;5415;59.322;18.246;2022-11-15T01:05:47;6.00;99.90
10728;DHT22;5415;59.322;18.246;2022-11-15T01:08:15;6.00;99.90
10728;DHT22;5415;59.322;18.246;2022-11-15T01:10:44;6.10;99.90
10728;DHT22;5415;59.322;18.246;2022-11-15T01:13:11;6.00;99.90
10728;DHT22;5415;59.322;18.246;2022-11-15T01:15:39;6.00;99.90
10728;DHT22;5415;59.322;18.246;2022-11-15T01:18:08;6.30;99.90
10728;DHT22;5415;59.322;18.246;2022-11-15T01:20:39;5.70;99.90
10728;DHT22;5415;59.322;18.246;2022-11-15T01:23:07;6.00;99.90
10728;DHT22;5415;59.322;18.246;2022-11-15T01:25:34;6.60;99.90
10728;DHT22;5415;59.322;18.246;2022-11-15T01:28:03;6.00;99.90
10728;DHT22;5415;59.322;18.246;2022-11-15T01:30:30;6.00;99.90
10728;DHT22;5415;59.322;18.246;2022-11-15T01:32:58;6.00;99.90
10728;DHT22;5415;59.322;18.246;2022-11-15T01:35:25;6.10;99.90
10728;DHT22;5415;59.322;18.246;2022-11-15T01:37:53;5.90;99.90
10728;DHT22;5415;59.322;18.246;2022-11-15T01:40:20;5.90;99.90
10728;DHT22;5415;59.322;18.246;2022-11-15T01:42:47;7.60;99.90
10728;DHT22;5415;59.322;18.246;2022-11-15T01:45:16;5.90;99.90
10728;DHT22;5415;59.322;18.246;2022-11-15T01:47:46;5.90;99.90
10728;DHT22;5415;59.322;18.246;2022-11-15T01:50:17;5.90;99.90
10728;DHT22;5415;59.322;18.246;2022-11-15T01:52:45;5.90;99.90
10728;DHT22;5415;59.322;18.246;2022-11-15T01:55:18;5.80;99.90
10728;DHT22;5415;59.322;18.246;2022-11-15T01:57:48;5.80;99.90
10728;DHT22;5415;59.322;18.246;2022-11-15T02:00:19;5.70;99.90
10728;DHT22;5415;59.322;18.246;2022-11-15T02:02:47;5.70;99.90
10728;DHT22;5415;59.322;18.246;2022-11-15T02:05:14;5.70;99.90
10728;DHT22;5415;59.322;18.246;2022-11-15T02:07:43;5.70;99.90
10728;DHT22;5415;59.322;18.246;2022-11-15T02:10:23;5.70;99.90
10728;DHT22;5415;59.322;18.246;2022-11-15T02:12:51;5.60;99.90
10728;DHT22;5415;59.322;18.246;2022-11-15T02:15:21;5.60;99.90
10728;DHT22;5415;59.322;18.246;2022-11-15T02:17:59;5.60;99.90
10728;DHT22;5415;59.322;18.246;2022-11-15T02:20:41;5.60;99.90
10728;DHT22;5415;59.322;18.246;2022-11-15T02:29:14;5.60;99.90
10728;DHT22;5415;59.322;18.246;2022-11-15T02:31:53;5.60;99.90
10728;DHT22;5415;59.322;18.246;2022-11-15T02:34:31;5.50;99.90
10728;DHT22;5415;59.322;18.246;2022-11-15T02:37:03;5.50;99.90
10728;DHT22;5415;59.322;18.246;2022-11-15T02:39:37;5.50;99.90
10728;DHT22;5415;59.322;18.246;2022-11-15T02:42:09;5.50;99.90
10728;DHT22;5415;59.322;18.246;2022-11-15T02:44:52;5.50;99.90
10728;DHT22;5415;59.322;18.246;2022-11-15T02:47:24;5.40;99.90
10728;DHT22;5415;59.322;18.246;2022-11-15T02:49:55;5.40;99.90
10728;DHT22;5415;59.322;18.246;2022-11-15T02:52:24;5.40;99.90
10728;DHT22;5415;59.322;18.246;2022-11-15T02:54:53;5.40;99.90
10728;DHT22;5415;59.322;18.246;2022-11-15T02:57:31;5.40;99.90
10728;DHT22;5415;59.322;18.246;2022-11-15T03:00:07;5.40;99.90
10728;DHT22;5415;59.322;18.246;2022-11-15T03:05:35;5.40;99.90
10728;DHT22;5415;59.322;18.246;2022-11-15T03:08:09;5.40;99.90
10728;DHT22;5415;59.322;18.246;2022-11-15T03:10:45;5.30;99.90
10728;DHT22;5415;59.322;18.246;2022-11-15T03:13:26;5.30;99.90
10728;DHT22;5415;59.322;18.246;2022-11-15T03:15:58;5.30;99.90
10728;DHT22;5415;59.322;18.246;2022-11-15T03:18:32;5.30;99.90
10728;DHT22;5415;59.322;18.246;2022-11-15T03:21:05;5.30;99.90
10728;DHT22;5415;59.322;18.246;2022-11-15T03:23:36;5.30;99.90
10728;DHT22;5415;59.322;18.246;2022-11-15T03:26:07;5.30;99.90
10728;DHT22;5415;59.322;18.246;2022-11-15T03:28:42;6.90;99.90
10728;DHT22;5415;59.322;18.246;2022-11-15T03:31:12;5.20;99.90
10728;DHT22;5415;59.322;18.246;2022-11-15T03:33:59;5.30;99.90
10728;DHT22;5415;59.322;18.246;2022-11-15T03:36:30;5.30;99.90
10728;DHT22;5415;59.322;18.246;2022-11-15T03:39:02;5.30;99.90
10728;DHT22;5415;59.322;18.246;2022-11-15T03:41:37;5.30;99.90
10728;DHT22;5415;59.322;18.246;2022-11-15T03:44:13;5.30;99.90
10728;DHT22;5415;59.322;18.246;2022-11-15T03:46:46;5.30;99.90
10728;DHT22;5415;59.322;18.246;2022-11-15T03:49:19;5.30;99.90
10728;DHT22;5415;59.322;18.246;2022-11-15T03:51:48;5.70;99.90
10728;DHT22;5415;59.322;18.246;2022-11-15T03:54:17;5.30;99.90
10728;DHT22;5415;59.322;18.246;2022-11-15T03:56:44;5.30;99.90
10728;DHT22;5415;59.322;18.246;2022-11-15T03:59:12;5.30;99.90
10728;DHT22;5415;59.322;18.246;2022-11-15T04:01:39;5.50;99.90
10728;DHT22;5415;59.322;18.246;2022-11-15T04:04:06;5.30;99.90
10728;DHT22;5415;59.322;18.246;2022-11-15T04:06:33;5.30;99.90
10728;DHT22;5415;59.322;18.246;2022-11-15T04:09:02;5.30;99.90
10728;DHT22;5415;59.322;18.246;2022-11-15T04:11:30;5.20;99.90
10728;DHT22;5415;59.322;18.246;2022-11-15T04:13:57;5.40;99.90
10728;DHT22;5415;59.322;18.246;2022-11-15T04:16:25;5.80;99.90
10728;DHT22;5415;59.322;18.246;2022-11-15T04:18:52;5.20;99.90
10728;DHT22;5415;59.322;18.246;2022-11-15T04:21:33;5.20;99.90
10728;DHT22;5415;59.322;18.246;2022-11-15T04:24:16;5.20;99.90
10728;DHT22;5415;59.322;18.246;2022-11-15T04:26:43;5.20;99.90
10728;DHT22;5415;59.322;18.246;2022-11-15T04:29:10;5.20;99.90
10728;DHT22;5415;59.322;18.246;2022-11-15T04:31:55;5.10;99.90
10728;DHT22;5415;59.322;18.246;2022-11-15T04:34:22;5.10;99.90
10728;DHT22;5415;59.322;18.246;2022-11-15T04:36:49;5.10;99.90
10728;DHT22;5415;59.322;18.246;2022-11-15T04:39:35;5.10;99.90
10728;DHT22;5415;59.322;18.246;2022-11-15T04:42:03;5.20;99.90
10728;DHT22;5415;59.322;18.246;2022-11-15T04:44:31;5.10;99.90
10728;DHT22;5415;59.322;18.246;2022-11-15T04:46:58;5.10;99.90
10728;DHT22;5415;59.322;18.246;2022-11-15T04:49:26;5.20;99.90
10728;DHT22;5415;59.322;18.246;2022-11-15T04:51:53;5.10;99.90
10728;DHT22;5415;59.322;18.246;2022-11-15T04:54:20;5.20;99.90
10728;DHT22;5415;59.322;18.246;2022-11-15T04:56:50;5.10;99.90
10728;DHT22;5415;59.322;18.246;2022-11-15T04:59:18;5.10;99.90
10728;DHT22;5415;59.322;18.246;2022-11-15T05:01:45;4.70;99.90
10728;DHT22;5415;59.322;18.246;2022-11-15T05:04:12;5.30;99.90
10728;DHT22;5415;59.322;18.246;2022-11-15T05:06:48;5.20;99.90
10728;DHT22;5415;59.322;18.246;2022-11-15T05:09:16;5.90;99.90
10728;DHT22;5415;59.322;18.246;2022-11-15T05:11:50;5.20;99.90
10728;DHT22;5415;59.322;18.246;2022-11-15T05:14:17;5.20;99.90
10728;DHT22;5415;59.322;18.246;2022-11-15T05:16:44;5.10;99.90
10728;DHT22;5415;59.322;18.246;2022-11-15T05:19:12;6.70;99.90
10728;DHT22;5415;59.322;18.246;2022-11-15T05:21:40;5.10;99.90
10728;DHT22;5415;59.322;18.246;2022-11-15T05:24:09;5.30;99.90
10728;DHT22;5415;59.322;18.246;2022-11-15T05:26:36;5.30;99.90
10728;DHT22;5415;59.322;18.246;2022-11-15T05:29:05;5.20;99.90
10728;DHT22;5415;59.322;18.246;2022-11-15T05:31:32;5.30;99.90
10728;DHT22;5415;59.322;18.246;2022-11-15T05:34:01;4.70;99.90
10728;DHT22;5415;59.322;18.246;2022-11-15T05:36:31;5.20;99.90
10728;DHT22;5415;59.322;18.246;2022-11-15T05:39:00;5.20;99.90
10728;DHT22;5415;59.322;18.246;2022-11-15T05:41:31;5.20;99.90
10728;DHT22;5415;59.322;18.246;2022-11-15T05:44:00;5.20;99.90
10728;DHT22;5415;59.322;18.246;2022-11-15T05:46:30;5.40;99.90
10728;DHT22;5415;59.322;18.246;2022-11-15T05:49:01;5.20;99.90
10728;DHT22;5415;59.322;18.246;2022-11-15T05:51:30;5.20;99.90
10728;DHT22;5415;59.322;18.246;2022-11-15T05:54:13;5.50;99.90
10728;DHT22;5415;59.322;18.246;2022-11-15T05:56:54;6.00;99.90
10728;DHT22;5415;59.322;18.246;2022-11-15T05:59:36;5.50;99.90
10728;DHT22;5415;59.322;18.246;2022-11-15T06:05:43;6.00;99.90
10728;DHT22;5415;59.322;18.246;2022-11-15T06:08:10;6.30;99.90
10728;DHT22;5415;59.322;18.246;2022-11-15T06:10:37;5.30;99.90
10728;DHT22;5415;59.322;18.246;2022-11-15T06:13:05;5.40;99.90
10728;DHT22;5415;59.322;18.246;2022-11-15T06:15:32;5.50;99.90
10728;DHT22;5415;59.322;18.246;2022-11-15T06:18:00;5.70;99.90
10728;DHT22;5415;59.322;18.246;2022-11-15T06:20:29;5.60;99.90
10728;DHT22;5415;59.322;18.246;2022-11-15T06:22:59;5.60;99.90
10728;DHT22;5415;59.322;18.246;2022-11-15T06:25:29;5.60;99.90
10728;DHT22;5415;59.322;18.246;2022-11-15T06:27:58;5.60;99.90
10728;DHT22;5415;59.322;18.246;2022-11-15T06:30:26;5.60;99.90
10728;DHT22;5415;59.322;18.246;2022-11-15T06:33:05;5.50;99.90
10728;DHT22;5415;59.322;18.246;2022-11-15T06:35:35;5.60;99.90
10728;DHT22;5415;59.322;18.246;2022-11-15T06:38:07;5.70;99.90
10728;DHT22;5415;59.322;18.246;2022-11-15T06:40:35;5.70;99.90
10728;DHT22;5415;59.322;18.246;2022-11-15T06:43:03;5.70;99.90
10728;DHT22;5415;59.322;18.246;2022-11-15T06:45:31;5.70;99.90
10728;DHT22;5415;59.322;18.246;2022-11-15T06:47:59;5.60;99.90
10728;DHT22;5415;59.322;18.246;2022-11-15T06:50:28;5.60;99.90
10728;DHT22;5415;59.322;18.246;2022-11-15T06:52:55;5.70;99.90
10728;DHT22;5415;59.322;18.246;2022-11-15T06:55:28;6.00;99.90
10728;DHT22;5415;59.322;18.246;2022-11-15T06:57:56;5.90;99.90
10728;DHT22;5415;59.322;18.246;2022-11-15T07:00:23;5.80;99.90
10728;DHT22;5415;59.322;18.246;2022-11-15T07:02:50;5.80;99.90
10728;DHT22;5415;59.322;18.246;2022-11-15T07:05:17;5.70;99.90
10728;DHT22;5415;59.322;18.246;2022-11-15T07:07:51;5.80;99.90
10728;DHT22;5415;59.322;18.246;2022-11-15T07:10:21;5.70;99.90
10728;DHT22;5415;59.322;18.246;2022-11-15T07:12:51;6.10;99.90
10728;DHT22;5415;59.322;18.246;2022-11-15T07:15:20;5.80;99.90
10728;DHT22;5415;59.322;18.246;2022-11-15T07:17:48;5.70;99.90
10728;DHT22;5415;59.322;18.246;2022-11-15T07:20:15;5.70;99.90
10728;DHT22;5415;59.322;18.246;2022-11-15T07:22:43;5.60;99.90
10728;DHT22;5415;59.322;18.246;2022-11-15T07:25:14;5.60;99.90
10728;DHT22;5415;59.322;18.246;2022-11-15T07:27:42;6.30;99.90
10728;DHT22;5415;59.322;18.246;2022-11-15T07:30:15;5.60;99.90
10728;DHT22;5415;59.322;18.246;2022-11-15T07:32:42;5.60;99.90
10728;DHT22;5415;59.322;18.246;2022-11-15T07:35:09;5.70;99.90
10728;DHT22;5415;59.322;18.246;2022-11-15T07:37:36;5.70;99.90
10728;DHT22;5415;59.322;18.246;2022-11-15T07:40:24;5.60;99.90
10728;DHT22;5415;59.322;18.246;2022-11-15T07:43:04;5.60;99.90
10728;DHT22;5415;59.322;18.246;2022-11-15T07:45:43;5.70;99.90
10728;DHT22;5415;59.322;18.246;2022-11-15T07:48:12;5.70;99.90
10728;DHT22;5415;59.322;18.246;2022-11-15T07:50:41;5.80;99.90
10728;DHT22;5415;59.322;18.246;2022-11-15T07:53:09;5.70;99.90
10728;DHT22;5415;59.322;18.246;2022-11-15T07:55:37;5.70;99.90
10728;DHT22;5415;59.322;18.246;2022-11-15T07:58:06;5.70;99.90
10728;DHT22;5415;59.322;18.246;2022-11-15T08:00:34;5.70;99.90
10728;DHT22;5415;59.322;18.246;2022-11-15T08:03:05;5.70;99.90
10728;DHT22;5415;59.322;18.246;2022-11-15T08:05:33;5.60;99.90
10728;DHT22;5415;59.322;18.246;2022-11-15T08:08:01;5.50;99.90
10728;DHT22;5415;59.322;18.246;2022-11-15T08:10:28;5.50;99.90
10728;DHT22;5415;59.322;18.246;2022-11-15T08:12:59;5.50;99.90
10728;DHT22;5415;59.322;18.246;2022-11-15T08:15:27;5.50;99.90
10728;DHT22;5415;59.322;18.246;2022-11-15T08:17:56;5.50;99.90
10728;DHT22;5415;59.322;18.246;2022-11-15T08:20:26;5.60;99.90
10728;DHT22;5415;59.322;18.246;2022-11-15T08:22:55;5.60;99.90
10728;DHT22;5415;59.322;18.246;2022-11-15T08:25:23;5.60;99.90
10728;DHT22;5415;59.322;18.246;2022-11-15T08:27:53;5.70;99.90
10728;DHT22;5415;59.322;18.246;2022-11-15T08:30:22;5.70;99.90
10728;DHT22;5415;59.322;18.246;2022-11-15T08:32:50;5.70;99.90
10728;DHT22;5415;59.322;18.246;2022-11-15T08:35:18;5.70;99.90
10728;DHT22;5415;59.322;18.246;2022-11-15T08:37:47;5.70;99.90
10728;DHT22;5415;59.322;18.246;2022-11-15T08:40:15;5.70;99.90
10728;DHT22;5415;59.322;18.246;2022-11-15T08:42:46;5.70;99.90
10728;DHT22;5415;59.322;18.246;2022-11-15T08:45:13;5.80;99.90
10728;DHT22;5415;59.322;18.246;2022-11-15T08:47:41;5.90;99.90
10728;DHT22;5415;59.322;18.246;2022-11-15T08:50:08;5.90;99.90
10728;DHT22;5415;59.322;18.246;2022-11-15T08:52:37;5.90;99.90
10728;DHT22;5415;59.322;18.246;2022-11-15T08:55:08;6.00;99.90
10728;DHT22;5415;59.322;18.246;2022-11-15T08:57:35;6.10;99.90
10728;DHT22;5415;59.322;18.246;2022-11-15T09:00:03;6.20;99.90
10728;DHT22;5415;59.322;18.246;2022-11-15T09:02:30;6.20;99.90
10728;DHT22;5415;59.322;18.246;2022-11-15T09:04:57;6.20;99.90
10728;DHT22;5415;59.322;18.246;2022-11-15T09:07:24;6.20;99.90
10728;DHT22;5415;59.322;18.246;2022-11-15T09:09:51;6.20;99.90
10728;DHT22;5415;59.322;18.246;2022-11-15T09:12:20;6.20;99.90
10728;DHT22;5415;59.322;18.246;2022-11-15T09:14:48;6.20;99.90
10728;DHT22;5415;59.322;18.246;2022-11-15T09:17:16;6.20;99.90
10728;DHT22;5415;59.322;18.246;2022-11-15T09:19:44;6.30;99.90
10728;DHT22;5415;59.322;18.246;2022-11-15T09:22:11;6.70;99.90
10728;DHT22;5415;59.322;18.246;2022-11-15T09:24:39;6.70;99.90
10728;DHT22;5415;59.322;18.246;2022-11-15T09:27:07;6.60;99.90
10728;DHT22;5415;59.322;18.246;2022-11-15T09:29:35;6.40;99.90
10728;DHT22;5415;59.322;18.246;2022-11-15T09:32:03;6.40;99.90
10728;DHT22;5415;59.322;18.246;2022-11-15T09:34:30;6.40;99.90
10728;DHT22;5415;59.322;18.246;2022-11-15T09:36:58;6.30;99.90
10728;DHT22;5415;59.322;18.246;2022-11-15T09:39:25;6.40;99.90
10728;DHT22;5415;59.322;18.246;2022-11-15T09:42:18;6.30;99.90
10728;DHT22;5415;59.322;18.246;2022-11-15T09:45:11;6.30;99.90
10728;DHT22;5415;59.322;18.246;2022-11-15T09:47:59;6.70;99.90
10728;DHT22;5415;59.322;18.246;2022-11-15T09:50:34;6.50;99.90
10728;DHT22;5415;59.322;18.246;2022-11-15T09:53:04;6.50;99.90
10728;DHT22;5415;59.322;18.246;2022-11-15T09:55:38;6.60;99.90
10728;DHT22;5415;59.322;18.246;2022-11-15T09:58:18;6.70;99.90
10728;DHT22;5415;59.322;18.246;2022-11-15T10:00:52;6.50;99.90
10728;DHT22;5415;59.322;18.246;2022-11-15T10:03:26;6.60;99.90
10728;DHT22;5415;59.322;18.246;2022-11-15T10:05:57;6.50;99.90
10728;DHT22;5415;59.322;18.246;2022-11-15T10:08:43;6.50;99.90
10728;DHT22;5415;59.322;18.246;2022-11-15T10:11:16;6.40;99.90
10728;DHT22;5415;59.322;18.246;2022-11-15T10:13:47;6.50;99.90
10728;DHT22;5415;59.322;18.246;2022-11-15T10:16:29;6.50;99.90
10728;DHT22;5415;59.322;18.246;2022-11-15T10:19:06;6.70;99.90
10728;DHT22;5415;59.322;18.246;2022-11-15T10:21:44;6.90;99.90
10728;DHT22;5415;59.322;18.246;2022-11-15T10:24:19;6.60;99.90
10728;DHT22;5415;59.322;18.246;2022-11-15T10:26:47;6.60;99.90
10728;DHT22;5415;59.322;18.246;2022-11-15T10:29:18;6.70;99.90
10728;DHT22;5415;59.322;18.246;2022-11-15T10:31:50;6.50;99.90
10728;DHT22;5415;59.322;18.246;2022-11-15T10:34:19;6.80;99.90
10728;DHT22;5415;59.322;18.246;2022-11-15T10:36:54;6.80;99.90
10728;DHT22;5415;59.322;18.246;2022-11-15T10:39:22;6.90;99.90
10728;DHT22;5415;59.322;18.246;2022-11-15T10:41:50;6.90;99.90
10728;DHT22;5415;59.322;18.246;2022-11-15T10:44:21;6.70;99.90
10728;DHT22;5415;59.322;18.246;2022-11-15T10:47:20;6.70;99.90
10728;DHT22;5415;59.322;18.246;2022-11-15T10:49:58;6.70;99.90
10728;DHT22;5415;59.322;18.246;2022-11-15T10:52:25;6.80;99.90
10728;DHT22;5415;59.322;18.246;2022-11-15T10:54:58;7.00;99.90
10728;DHT22;5415;59.322;18.246;2022-11-15T10:57:30;6.90;99.90
10728;DHT22;5415;59.322;18.246;2022-11-15T11:00:01;6.60;99.90
10728;DHT22;5415;59.322;18.246;2022-11-15T11:02:34;6.50;99.90
10728;DHT22;5415;59.322;18.246;2022-11-15T11:05:03;6.80;99.90
10728;DHT22;5415;59.322;18.246;2022-11-15T11:07:33;7.00;99.90
10728;DHT22;5415;59.322;18.246;2022-11-15T11:10:04;6.60;99.90
10728;DHT22;5415;59.322;18.246;2022-11-15T11:12:33;6.60;99.90
10728;DHT22;5415;59.322;18.246;2022-11-15T11:15:10;6.70;99.90
10728;DHT22;5415;59.322;18.246;2022-11-15T11:17:53;6.80;99.90
10728;DHT22;5415;59.322;18.246;2022-11-15T11:20:25;6.80;99.90
10728;DHT22;5415;59.322;18.246;2022-11-15T11:23:06;6.90;99.90
10728;DHT22;5415;59.322;18.246;2022-11-15T11:25:44;6.60;99.90
10728;DHT22;5415;59.322;18.246;2022-11-15T11:28:36;6.50;99.90
10728;DHT22;5415;59.322;18.246;2022-11-15T11:31:18;6.80;99.90
10728;DHT22;5415;59.322;18.246;2022-11-15T11:33:56;6.80;99.90
10728;DHT22;5415;59.322;18.246;2022-11-15T11:36:27;6.60;99.90
10728;DHT22;5415;59.322;18.246;2022-11-15T11:39:11;6.40;99.90
10728;DHT22;5415;59.322;18.246;2022-11-15T11:41:50;6.40;99.90
10728;DHT22;5415;59.322;18.246;2022-11-15T11:44:34;6.50;99.90
10728;DHT22;5415;59.322;18.246;2022-11-15T11:47:08;6.50;99.90
10728;DHT22;5415;59.322;18.246;2022-11-15T11:49:43;6.50;99.90
10728;DHT22;5415;59.322;18.246;2022-11-15T11:52:15;6.40;99.90
10728;DHT22;5415;59.322;18.246;2022-11-15T11:54:50;6.40;99.90
10728;DHT22;5415;59.322;18.246;2022-11-15T11:57:26;6.70;99.90
10728;DHT22;5415;59.322;18.246;2022-11-15T11:59:58;6.60;99.90
10728;DHT22;5415;59.322;18.246;2022-11-15T12:02:29;6.70;99.90
10728;DHT22;5415;59.322;18.246;2022-11-15T12:05:05;6.60;99.90
10728;DHT22;5415;59.322;18.246;2022-11-15T12:07:36;6.50;99.90
10728;DHT22;5415;59.322;18.246;2022-11-15T12:10:14;6.60;99.90
10728;DHT22;5415;59.322;18.246;2022-11-15T12:12:49;6.50;99.90
10728;DHT22;5415;59.322;18.246;2022-11-15T12:15:20;6.50;99.90
10728;DHT22;5415;59.322;18.246;2022-11-15T12:17:49;6.40;99.90
10728;DHT22;5415;59.322;18.246;2022-11-15T12:20:20;6.40;99.90
10728;DHT22;5415;59.322;18.246;2022-11-15T12:22:53;6.50;99.90
10728;DHT22;5415;59.322;18.246;2022-11-15T12:25:24;6.60;99.90
10728;DHT22;5415;59.322;18.246;2022-11-15T12:27:56;6.70;99.90
10728;DHT22;5415;59.322;18.246;2022-11-15T12:30:38;6.60;99.90
10728;DHT22;5415;59.322;18.246;2022-11-15T12:33:35;6.50;99.90
10728;DHT22;5415;59.322;18.246;2022-11-15T12:36:09;6.30;99.90
10728;DHT22;5415;59.322;18.246;2022-11-15T12:38:56;6.20;99.90
10728;DHT22;5415;59.322;18.246;2022-11-15T12:41:25;6.20;99.90
10728;DHT22;5415;59.322;18.246;2022-11-15T12:43:53;6.20;99.90
10728;DHT22;5415;59.322;18.246;2022-11-15T12:49:45;6.30;99.90
10728;DHT22;5415;59.322;18.246;2022-11-15T12:52:18;6.40;99.90
10728;DHT22;5415;59.322;18.246;2022-11-15T12:55:00;6.60;99.90
10728;DHT22;5415;59.322;18.246;2022-11-15T12:57:41;6.40;99.90
10728;DHT22;5415;59.322;18.246;2022-11-15T13:00:43;6.20;99.90
10728;DHT22;5415;59.322;18.246;2022-11-15T13:03:26;6.10;99.90
10728;DHT22;5415;59.322;18.246;2022-11-15T13:08:50;6.30;99.90
10728;DHT22;5415;59.322;18.246;2022-11-15T13:11:47;6.40;99.90
10728;DHT22;5415;59.322;18.246;2022-11-15T13:14:46;6.10;99.90
10728;DHT22;5415;59.322;18.246;2022-11-15T13:17:28;6.00;99.90
10728;DHT22;5415;59.322;18.246;2022-11-15T13:20:21;6.00;99.90
10728;DHT22;5415;59.322;18.246;2022-11-15T13:22:50;6.20;99.90
10728;DHT22;5415;59.322;18.246;2022-11-15T13:25:48;6.00;99.90
10728;DHT22;5415;59.322;18.246;2022-11-15T13:28:24;5.90;99.90
10728;DHT22;5415;59.322;18.246;2022-11-15T13:30:55;5.80;99.90
10728;DHT22;5415;59.322;18.246;2022-11-15T13:33:27;5.80;99.90
10728;DHT22;5415;59.322;18.246;2022-11-15T13:35:59;5.80;99.90
10728;DHT22;5415;59.322;18.246;2022-11-15T13:38:29;5.80;99.90
10728;DHT22;5415;59.322;18.246;2022-11-15T13:41:00;5.90;99.90
10728;DHT22;5415;59.322;18.246;2022-11-15T13:43:36;5.80;99.90
10728;DHT22;5415;59.322;18.246;2022-11-15T13:46:05;5.70;99.90
10728;DHT22;5415;59.322;18.246;2022-11-15T13:48:33;5.60;99.90
10728;DHT22;5415;59.322;18.246;2022-11-15T13:51:01;5.60;99.90
10728;DHT22;5415;59.322;18.246;2022-11-15T13:53:31;5.80;99.90
10728;DHT22;5415;59.322;18.246;2022-11-15T13:56:02;5.90;99.90
10728;DHT22;5415;59.322;18.246;2022-11-15T13:58:30;5.60;99.90
10728;DHT22;5415;59.322;18.246;2022-11-15T14:01:00;5.70;99.90
10728;DHT22;5415;59.322;18.246;2022-11-15T14:03:29;5.80;99.90
10728;DHT22;5415;59.322;18.246;2022-11-15T14:06:05;5.50;99.90
10728;DHT22;5415;59.322;18.246;2022-11-15T14:08:36;5.50;99.90
10728;DHT22;5415;59.322;18.246;2022-11-15T14:11:13;5.50;99.90
10728;DHT22;5415;59.322;18.246;2022-11-15T14:13:40;5.50;99.90
10728;DHT22;5415;59.322;18.246;2022-11-15T14:16:16;5.70;99.90
10728;DHT22;5415;59.322;18.246;2022-11-15T14:21:13;5.70;99.90
10728;DHT22;5415;59.322;18.246;2022-11-15T14:23:40;5.80;99.90
10728;DHT22;5415;59.322;18.246;2022-11-15T14:26:27;5.60;99.90
10728;DHT22;5415;59.322;18.246;2022-11-15T14:28:55;5.60;99.90
10728;DHT22;5415;59.322;18.246;2022-11-15T14:31:22;5.90;99.90
10728;DHT22;5415;59.322;18.246;2022-11-15T14:33:49;5.70;99.90
10728;DHT22;5415;59.322;18.246;2022-11-15T14:36:18;6.00;99.90
10728;DHT22;5415;59.322;18.246;2022-11-15T14:38:46;5.90;99.90
10728;DHT22;5415;59.322;18.246;2022-11-15T14:41:20;6.00;99.90
10728;DHT22;5415;59.322;18.246;2022-11-15T14:43:47;5.60;99.90
10728;DHT22;5415;59.322;18.246;2022-11-15T14:46:16;5.80;99.90
10728;DHT22;5415;59.322;18.246;2022-11-15T14:48:43;6.00;99.90
10728;DHT22;5415;59.322;18.246;2022-11-15T14:51:16;6.30;99.90
10728;DHT22;5415;59.322;18.246;2022-11-15T14:53:45;5.90;99.90
10728;DHT22;5415;59.322;18.246;2022-11-15T14:56:13;5.40;99.90
10728;DHT22;5415;59.322;18.246;2022-11-15T14:58:43;5.50;99.90
10728;DHT22;5415;59.322;18.246;2022-11-15T15:01:13;5.30;99.90
10728;DHT22;5415;59.322;18.246;2022-11-15T15:03:40;5.90;99.90
10728;DHT22;5415;59.322;18.246;2022-11-15T15:06:09;5.50;99.90
10728;DHT22;5415;59.322;18.246;2022-11-15T15:08:38;5.20;99.90
10728;DHT22;5415;59.322;18.246;2022-11-15T15:11:10;5.10;99.90
10728;DHT22;5415;59.322;18.246;2022-11-15T15:13:40;5.20;99.90
10728;DHT22;5415;59.322;18.246;2022-11-15T15:16:09;5.10;99.90
10728;DHT22;5415;59.322;18.246;2022-11-15T15:18:37;5.20;99.90
10728;DHT22;5415;59.322;18.246;2022-11-15T15:21:18;5.40;99.90
10728;DHT22;5415;59.322;18.246;2022-11-15T15:23:48;5.40;99.90
10728;DHT22;5415;59.322;18.246;2022-11-15T15:26:15;5.30;99.90
10728;DHT22;5415;59.322;18.246;2022-11-15T15:28:42;5.20;99.90
10728;DHT22;5415;59.322;18.246;2022-11-15T15:38:57;4.90;99.90
10728;DHT22;5415;59.322;18.246;2022-11-15T15:41:25;4.90;99.90
10728;DHT22;5415;59.322;18.246;2022-11-15T15:43:52;5.00;99.90
10728;DHT22;5415;59.322;18.246;2022-11-15T15:46:19;4.90;99.90
10728;DHT22;5415;59.322;18.246;2022-11-15T15:48:47;4.90;99.90
10728;DHT22;5415;59.322;18.246;2022-11-15T15:51:16;4.90;99.90
10728;DHT22;5415;59.322;18.246;2022-11-15T15:53:43;5.00;99.90
10728;DHT22;5415;59.322;18.246;2022-11-15T15:56:12;5.00;99.90
10728;DHT22;5415;59.322;18.246;2022-11-15T15:58:39;5.10;99.90
10728;DHT22;5415;59.322;18.246;2022-11-15T16:01:07;5.00;99.90
10728;DHT22;5415;59.322;18.246;2022-11-15T16:03:34;4.90;99.90
10728;DHT22;5415;59.322;18.246;2022-11-15T16:06:02;5.00;99.90
10728;DHT22;5415;59.322;18.246;2022-11-15T16:08:29;4.90;99.90
10728;DHT22;5415;59.322;18.246;2022-11-15T16:10:57;4.90;99.90
10728;DHT22;5415;59.322;18.246;2022-11-15T16:13:32;4.90;99.90
10728;DHT22;5415;59.322;18.246;2022-11-15T16:16:00;5.00;99.90
10728;DHT22;5415;59.322;18.246;2022-11-15T16:18:27;5.00;99.90
10728;DHT22;5415;59.322;18.246;2022-11-15T16:20:54;5.10;99.90
10728;DHT22;5415;59.322;18.246;2022-11-15T16:23:22;4.90;99.90
10728;DHT22;5415;59.322;18.246;2022-11-15T16:25:51;4.90;99.90
10728;DHT22;5415;59.322;18.246;2022-11-15T16:28:22;4.90;99.90
10728;DHT22;5415;59.322;18.246;2022-11-15T16:31:02;4.90;99.90
10728;DHT22;5415;59.322;18.246;2022-11-15T16:33:30;4.90;99.90
10728;DHT22;5415;59.322;18.246;2022-11-15T16:35:57;5.00;99.90
10728;DHT22;5415;59.322;18.246;2022-11-15T16:38:24;4.90;99.90
10728;DHT22;5415;59.322;18.246;2022-11-15T16:40:52;4.90;99.90